Weather History for Alma, MI

Change the Weather History Date:

Wednesday, January 29, 2014

  Actual Average Record
Temperature  
Mean Temperature 10 °F -  
Max Temperature 18 °F 29 °F 54 °F (2013)
Min Temperature 1 °F 14 °F -11 °F (1966)
Degree Days  
Heating Degree Days 56    
Moisture  
Dew Point 5 °F    
Average Humidity 71    
Maximum Humidity 86    
Minimum Humidity 61    
Precipitation  
Precipitation 0.00 in - - ()
Sea Level Pressure  
Sea Level Pressure 30.03 in    
Wind  
Wind Speed 14 mph (SW)    
Max Wind Speed 23 mph    
Max Gust Speed 37 mph    
Visibility 7 miles    
Events Snow    
Averages and records for this station are not official NWS values.
T = Trace of Precipitation, MM = Missing Value Source: NWS Daily Summary

Daily Weather History Graph

Daily Weather History Graph

Search for Another Location

Airport:

Trip Planner

Search our weather history database for the weather conditions in past years. The results will help you decide how hot, cold, wet, or windy it might be!

Date:

Astronomy

Jan. 29, 2014 Rise Set
Actual Time 7:57 AM EST 5:46 PM EST
Civil Twilight 7:27 AM EST 6:17 PM EST
Nautical Twilight 6:52 AM EST 6:51 PM EST
Astronomical Twilight 6:19 AM EST 7:25 PM EST
Moon 6:33 AM EST 4:45 PM EST
Length of Visible Light 10h 50m
Length of Day
9h 49m
Waning Crescent, 2% of the Moon is Illuminated
Jan 29
Waning Crescent
Jan 30
New
Feb 6
First Quarter
Feb 14
Full
Feb 22
Last Quarter

Hourly Weather History & Observations

Time (EST) Temp. Windchill Dew Point Humidity Pressure Visibility Wind Dir Wind Speed Gust Speed Precip Events Conditions
12:10 AM 1.4 °F -16.9 °F -3.1 °F 81% 30.06 in 5.0 mi SSW 13.8 mph - N/A Snow Light Snow
12:30 AM 1.9 °F -16.2 °F -2.4 °F 82% 30.06 in 5.0 mi SSW 13.8 mph 19.6 mph N/A Snow Light Snow
12:52 AM 1.9 °F -13.8 °F -2.2 °F 83% 30.05 in 5.0 mi SSW 10.4 mph - N/A Snow Light Snow
1:07 AM 1.9 °F -12.9 °F -2.2 °F 83% 30.04 in 4.0 mi SSW 9.2 mph - N/A Snow Light Snow
1:29 AM 2.1 °F -12.6 °F -1.5 °F 85% 30.03 in 3.0 mi SSW 9.2 mph - N/A Snow Light Snow
1:50 AM 3.2 °F -11.3 °F -0.4 °F 85% 30.03 in 3.0 mi SSW 9.2 mph - N/A Snow Light Snow
2:10 AM 4.8 °F -10.2 °F 1.4 °F 86% 30.02 in 3.0 mi SSW 10.4 mph - N/A Snow Light Snow
2:30 AM 5.4 °F -8.6 °F 1.9 °F 86% 30.01 in 3.0 mi SW 9.2 mph - N/A Snow Light Snow
2:50 AM 5.7 °F -4.8 °F 2.3 °F 86% 30.01 in 4.0 mi SW 5.8 mph - N/A Snow Light Snow
3:10 AM 6.8 °F -5.9 °F 3.4 °F 86% 30.01 in 3.0 mi SW 8.1 mph - N/A Snow Light Snow
3:30 AM 8.2 °F -6.8 °F 4.8 °F 86% 30.01 in 3.0 mi WSW 11.5 mph 18.4 mph N/A Snow Light Snow
3:47 AM 9.5 °F -7.8 °F 5.0 °F 82% 30.00 in 2.5 mi WSW 16.1 mph 24.2 mph N/A Snow Light Snow
4:10 AM 9.5 °F -8.3 °F 4.1 °F 79% 30.00 in 2.0 mi WSW 17.3 mph 28.8 mph N/A Snow Light Snow
4:30 AM 9.5 °F -6.6 °F 3.7 °F 77% 29.98 in 3.0 mi WSW 13.8 mph 25.3 mph N/A   Haze
4:50 AM 9.5 °F -7.2 °F 3.6 °F 77% 29.98 in 4.0 mi WSW 15.0 mph 26.5 mph N/A   Haze
5:10 AM 9.5 °F -7.2 °F 4.1 °F 79% 29.98 in 4.0 mi WSW 15.0 mph 21.9 mph N/A   Haze
5:30 AM 10.0 °F -7.1 °F 4.1 °F 77% 29.98 in 4.0 mi WSW 16.1 mph 24.2 mph N/A   Haze
5:50 AM 10.4 °F -6.0 °F 4.6 °F 78% 29.98 in 4.0 mi WSW 15.0 mph 28.8 mph N/A   Haze
6:10 AM 10.8 °F -5.6 °F 4.8 °F 77% 29.98 in 4.0 mi WSW 15.0 mph 27.6 mph N/A   Haze
6:30 AM 10.9 °F -5.9 °F 5.0 °F 77% 29.98 in 4.0 mi WSW 16.1 mph 23.0 mph N/A   Haze
6:48 AM 11.1 °F -6.2 °F 5.4 °F 78% 29.98 in 4.0 mi WSW 17.3 mph 25.3 mph N/A   Haze
7:08 AM 11.3 °F -5.5 °F 5.2 °F 76% 29.97 in 5.0 mi WSW 16.1 mph 23.0 mph N/A   Haze
7:28 AM 11.3 °F -4.9 °F 5.0 °F 76% 29.97 in 5.0 mi WSW 15.0 mph 32.2 mph N/A   Haze
7:48 AM 11.7 °F -7.0 °F 5.2 °F 75% 29.97 in 7.0 mi WSW 20.7 mph 25.3 mph N/A   Overcast
8:08 AM 11.7 °F -3.8 °F 5.0 °F 75% 29.98 in 5.0 mi WSW 13.8 mph 26.5 mph N/A   Haze
8:28 AM 12.0 °F -5.6 °F 5.4 °F 75% 29.99 in 4.0 mi West 18.4 mph 27.6 mph N/A   Haze
8:48 AM 12.2 °F -4.3 °F 5.5 °F 75% 29.99 in 5.0 mi WSW 16.1 mph 25.3 mph N/A   Haze
9:08 AM 12.4 °F -5.1 °F 5.4 °F 73% 30.00 in 2.5 mi West 18.4 mph 36.8 mph N/A   Haze
9:31 AM 12.9 °F -3.9 °F 5.5 °F 72% 30.00 in 4.0 mi WSW 17.3 mph 26.5 mph N/A   Haze
9:51 AM 13.1 °F -2.6 °F 5.9 °F 73% 30.00 in 5.0 mi WSW 15.0 mph 26.5 mph N/A   Haze
10:11 AM 13.6 °F -3.5 °F 5.9 °F 71% 30.01 in 5.0 mi WSW 18.4 mph 25.3 mph N/A   Haze
10:31 AM 14.0 °F -1.4 °F 6.3 °F 71% 30.01 in 5.0 mi West 15.0 mph 28.8 mph N/A   Haze
10:51 AM 14.5 °F -2.3 °F 6.4 °F 70% 30.02 in 5.0 mi WSW 18.4 mph 27.6 mph N/A   Haze
11:11 AM 15.1 °F -0.1 °F 6.6 °F 69% 30.02 in 7.0 mi WSW 15.0 mph 26.5 mph N/A   Mostly Cloudy
11:31 AM 16.2 °F -0.2 °F 7.0 °F 67% 30.02 in 5.0 mi WSW 18.4 mph 27.6 mph N/A   Haze
11:52 AM 16.5 °F -0.6 °F 6.8 °F 66% 30.02 in 7.0 mi West 20.7 mph 29.9 mph N/A   Scattered Clouds
12:12 PM 16.7 °F -1.1 °F 7.2 °F 66% 30.02 in 7.0 mi WSW 23.0 mph 29.9 mph N/A   Mostly Cloudy
12:29 PM 16.7 °F 0.1 °F 7.0 °F 66% 30.01 in 7.0 mi WSW 19.6 mph 29.9 mph N/A   Mostly Cloudy
12:49 PM 18.0 °F 1.3 °F 7.2 °F 63% 30.01 in 7.0 mi WSW 20.7 mph 32.2 mph N/A   Scattered Clouds
1:09 PM 18.1 °F 1.6 °F 7.2 °F 62% 30.01 in 7.0 mi West 20.7 mph 28.8 mph N/A   Scattered Clouds
1:29 PM 18.5 °F 3.8 °F 7.5 °F 62% 30.01 in 10.0 mi WSW 16.1 mph 23.0 mph N/A   Scattered Clouds
1:49 PM 18.7 °F 1.9 °F 7.7 °F 62% 30.02 in 10.0 mi West 21.9 mph 26.5 mph N/A   Mostly Cloudy
2:09 PM 18.5 °F 3.8 °F 7.5 °F 62% 30.01 in 10.0 mi WSW 16.1 mph 25.3 mph N/A   Mostly Cloudy
2:30 PM 18.5 °F 2.9 °F 7.7 °F 63% 30.03 in 7.0 mi West 18.4 mph 27.6 mph N/A   Scattered Clouds
2:50 PM 18.9 °F 3.3 °F 7.7 °F 62% 30.03 in 10.0 mi West 18.4 mph 24.2 mph N/A   Scattered Clouds
3:10 PM 18.5 °F 3.8 °F 7.5 °F 62% 30.04 in 10.0 mi WSW 16.1 mph 21.9 mph N/A   Scattered Clouds
3:30 PM 18.3 °F 3.1 °F 7.3 °F 62% 30.04 in 10.0 mi WSW 17.3 mph 21.9 mph N/A   Scattered Clouds
3:50 PM 18.3 °F 2.6 °F 7.3 °F 62% 30.06 in 10.0 mi West 18.4 mph 24.2 mph N/A   Clear
4:10 PM 18.0 °F 4.2 °F 7.5 °F 64% 30.06 in 10.0 mi WSW 13.8 mph 23.0 mph N/A   Scattered Clouds
4:32 PM 17.6 °F 3.2 °F 7.5 °F 65% 30.07 in 10.0 mi WSW 15.0 mph 25.3 mph N/A   Scattered Clouds
4:53 PM 17.6 °F 5.7 °F 7.7 °F 65% 30.07 in 10.0 mi WSW 10.4 mph - N/A   Scattered Clouds
5:08 PM 17.6 °F 6.4 °F 7.3 °F 64% 30.07 in 10.0 mi WSW 9.2 mph - N/A   Clear
5:28 PM 17.6 °F 6.4 °F 6.6 °F 62% 30.06 in 10.0 mi SW 9.2 mph 17.3 mph N/A   Clear
5:48 PM 16.7 °F 5.3 °F 6.4 °F 64% 30.07 in 10.0 mi SW 9.2 mph - N/A   Clear
6:08 PM 16.5 °F 6.9 °F 6.3 °F 64% 30.07 in 10.0 mi SW 6.9 mph - N/A   Clear
6:28 PM 16.0 °F 6.3 °F 6.3 °F 66% 30.08 in 10.0 mi SW 6.9 mph - N/A   Clear
6:48 PM 15.6 °F 4.9 °F 6.3 °F 67% 30.08 in 10.0 mi SW 8.1 mph - N/A   Clear
7:08 PM 15.6 °F 4.0 °F 6.4 °F 67% 30.08 in 10.0 mi SSW 9.2 mph - N/A   Clear
7:28 PM 15.8 °F 3.4 °F 6.8 °F 68% 30.08 in 10.0 mi SSW 10.4 mph - N/A   Clear
7:48 PM 14.9 °F 2.3 °F 6.4 °F 69% 30.09 in 10.0 mi SSW 10.4 mph - N/A   Clear
8:11 PM 14.7 °F 0.1 °F 5.9 °F 68% 30.09 in 10.0 mi SSW 13.8 mph 17.3 mph N/A   Clear
8:31 PM 14.7 °F 1.4 °F 5.0 °F 65% 30.08 in 10.0 mi SSW 11.5 mph - N/A   Clear
8:51 PM 14.4 °F 1.6 °F 4.1 °F 64% 30.08 in 10.0 mi SSW 10.4 mph 18.4 mph N/A   Clear
9:11 PM 14.0 °F 2.0 °F 3.2 °F 62% 30.07 in 10.0 mi SSW 9.2 mph - N/A   Clear
9:31 PM 13.5 °F -0.2 °F 2.7 °F 62% 30.06 in 10.0 mi SSW 11.5 mph - N/A   Clear
9:51 PM 13.1 °F -2.6 °F 2.3 °F 62% 30.06 in 10.0 mi SSW 15.0 mph 19.6 mph N/A   Clear
10:11 PM 13.1 °F -2.0 °F 2.1 °F 62% 30.06 in 10.0 mi South 13.8 mph - N/A   Clear
10:29 PM 13.1 °F -2.6 °F 2.1 °F 62% 30.06 in 10.0 mi SSW 15.0 mph - N/A   Clear
10:49 PM 12.9 °F -0.9 °F 1.8 °F 61% 30.05 in 10.0 mi SSW 11.5 mph - N/A   Clear
11:09 PM 12.2 °F -2.5 °F 1.4 °F 62% 30.04 in 10.0 mi SSW 12.7 mph - N/A   Clear
11:29 PM 12.2 °F -1.8 °F 1.9 °F 64% 30.03 in 10.0 mi SSW 11.5 mph 18.4 mph N/A   Clear
11:49 PM 12.2 °F -1.0 °F 2.3 °F 65% 30.03 in 10.0 mi SSW 10.4 mph - N/A   Clear